Main page
METAR-TAF:

METAR-TAF

Airports :

Oiapoque, Amapá, Brazil

latitude: 03-50N, longitude: 051-50W, elevation: 39 m

Current weather observation

The report was made 1 hour and 6 minutes ago, at 19:00 UTC
Wind 5 kt from the Northeast
Temperature 29°C
Humidity 74%
Pressure 1012 hPa
Visibility 10 km or more
Scattered clouds at a height of 2000 ft
Broken clouds at a height of 3500 ft

METAR: SBOI 271900Z 05005KT 9999 SCT020 BKN035 29/24 Q1012

Time: 17:06 (20:06 UTC)

Forecast

The report was made 3 hours and 35 minutes ago, at 16:31 UTC
Forecast valid from 27 at 18 UTC to 28 at 06 UTC
Wind 10 kt from the East/Northeast
Visibility: 7000 m
Broken clouds at a height of 1700 ft
Few clouds at a height of 2500 ft, Towering cumulus.
Becoming
from 27 at 20 UTC to 27 at 22 UTC
Wind 5 kt from the Southeast
Visibility 10 km or more
Scattered clouds at a height of 2000 ft

TAF: SBOI 271631Z 2718/2806 06010KT 7000 BKN017 FEW025TCU TX30/2718Z TN24/2720Z BECMG 2720/2722 13005KT 9999 SCT020 RMK PHN

Weather observations and forecasts of more than 4000 airports (METAR and TAF reports).

The available stations are represented by yellow and red dots on the map.

Hover mouse over dot to see the name of the station.

Then click to see weather observations and forecasts.

To change the map : click on the green buttons with a black cross to zoom in, on the green button with a dash to zoom out, or on the green arrows for adjacent maps.


METAR-TAF: